Time;durP1;ratioP1;P1;durP2;ratioP2;P2;SDS_P1;SDS_P2;PMS_P1;PMS_P2;Temp;Humidity;BMP_temperature;BMP_pressure;BME280_temperature;BME280_humidity;BME280_pressure;Samples;Min_cycle;Max_cycle;Signal;HPM_P1;HPM_P2
2023/11/23 00:01:07;;;;;;;56.33;29.75;;;8.20;99.90;;;;;;5065514;28;20036;-66
2023/11/23 00:03:32;;;;;;;55.35;30.02;;;8.20;99.90;;;;;;5063228;28;20078;-66
2023/11/23 00:05:58;;;;;;;51.42;30.55;;;8.20;99.90;;;;;;5064879;28;20032;-66
2023/11/23 00:08:24;;;;;;;55.78;30.27;;;8.30;99.90;;;;;;5067676;28;20051;-66
2023/11/23 00:10:49;;;;;;;51.58;28.55;;;8.30;99.90;;;;;;5065758;28;20071;-66
2023/11/23 00:13:15;;;;;;;52.67;29.92;;;8.50;99.90;;;;;;5064810;28;20040;-66
2023/11/23 00:15:41;;;;;;;49.63;28.88;;;8.40;99.90;;;;;;5065054;28;20119;-66
2023/11/23 00:18:06;;;;;;;55.38;31.50;;;8.50;99.90;;;;;;5067958;28;20032;-66
2023/11/23 00:20:32;;;;;;;52.20;29.67;;;8.40;99.90;;;;;;5062581;28;20127;-66
2023/11/23 00:22:57;;;;;;;55.42;29.50;;;8.40;99.90;;;;;;5066637;28;20052;-66
2023/11/23 00:25:24;;;;;;;54.65;30.35;;;8.50;99.90;;;;;;5099470;28;20682;-66
2023/11/23 00:27:49;;;;;;;50.65;29.08;;;8.50;99.90;;;;;;5066149;28;20133;-66
2023/11/23 00:30:15;;;;;;;45.80;27.55;;;8.60;99.90;;;;;;5064649;28;20032;-66
2023/11/23 00:32:41;;;;;;;52.67;28.17;;;8.60;99.90;;;;;;5066736;28;20028;-66
2023/11/23 00:35:07;;;;;;;50.53;27.00;;;8.80;99.90;;;;;;5065852;28;21316;-66
2023/11/23 00:37:33;;;;;;;47.05;26.50;;;8.70;99.90;;;;;;5065324;28;20483;-66
2023/11/23 00:39:58;;;;;;;50.20;27.77;;;8.70;99.90;;;;;;5066053;28;20044;-66
2023/11/23 00:42:24;;;;;;;48.92;27.65;;;8.70;99.90;;;;;;5067610;28;20071;-66
2023/11/23 00:44:50;;;;;;;48.55;28.40;;;8.80;99.90;;;;;;5064873;28;20050;-66
2023/11/23 00:47:16;;;;;;;47.63;27.80;;;8.80;99.90;;;;;;5066268;28;20051;-66
2023/11/23 00:49:41;;;;;;;42.95;24.80;;;9.00;99.90;;;;;;5066393;28;20077;-66
2023/11/23 00:52:07;;;;;;;47.53;26.02;;;8.80;99.90;;;;;;5063839;28;20051;-66
2023/11/23 00:54:39;;;;;;;46.55;26.42;;;8.80;99.90;;;;;;5064882;28;20063;-66
2023/11/23 00:57:07;;;;;;;42.75;25.10;;;8.80;99.90;;;;;;5065389;28;20131;-66
2023/11/23 00:59:34;;;;;;;42.72;25.02;;;8.90;99.90;;;;;;5061718;28;20457;-66
2023/11/23 01:02:00;;;;;;;43.15;24.85;;;8.90;99.90;;;;;;5065751;28;20052;-66
2023/11/23 01:04:27;;;;;;;46.90;25.27;;;8.90;99.90;;;;;;5065896;28;20060;-66
2023/11/23 01:06:53;;;;;;;49.08;24.83;;;8.90;99.90;;;;;;5063390;28;20133;-66
2023/11/23 01:09:19;;;;;;;46.28;25.35;;;8.90;99.90;;;;;;5066007;28;20064;-66
2023/11/23 01:11:44;;;;;;;39.38;23.52;;;9.00;99.90;;;;;;5062248;28;20123;-66
2023/11/23 01:14:10;;;;;;;45.47;25.23;;;9.00;99.90;;;;;;5062877;28;20043;-66
2023/11/23 01:16:36;;;;;;;46.15;23.83;;;9.00;99.90;;;;;;5066488;28;20470;-66
2023/11/23 01:19:01;;;;;;;43.03;24.27;;;9.00;99.90;;;;;;5063928;28;20033;-66
2023/11/23 01:21:27;;;;;;;39.80;23.95;;;9.10;99.90;;;;;;5097513;28;20162;-66
2023/11/23 01:23:52;;;;;;;45.97;22.20;;;9.00;99.90;;;;;;5067051;28;20036;-66
2023/11/23 01:26:18;;;;;;;43.45;24.60;;;9.00;99.90;;;;;;5066626;28;20028;-66
2023/11/23 01:28:44;;;;;;;45.75;23.40;;;9.10;99.90;;;;;;5065049;28;20028;-66
2023/11/23 01:31:09;;;;;;;36.00;21.17;;;9.10;99.90;;;;;;5064958;28;20052;-66
2023/11/23 01:33:35;;;;;;;36.42;22.17;;;9.10;99.90;;;;;;5065007;28;20043;-66
2023/11/23 01:36:01;;;;;;;39.20;21.33;;;9.10;99.90;;;;;;5095296;28;20040;-66
2023/11/23 01:38:26;;;;;;;42.95;20.65;;;9.10;99.90;;;;;;5063379;28;20121;-66
2023/11/23 01:40:54;;;;;;;41.88;21.52;;;9.10;99.90;;;;;;5062750;28;20058;-66
2023/11/23 01:43:20;;;;;;;34.10;18.38;;;9.20;99.90;;;;;;5066257;28;20073;-66
2023/11/23 01:45:46;;;;;;;35.40;18.50;;;9.20;99.90;;;;;;5062758;28;20136;-66
2023/11/23 01:48:13;;;;;;;32.42;17.55;;;9.20;99.90;;;;;;5064656;28;20162;-66
2023/11/23 01:50:40;;;;;;;29.17;16.38;;;9.20;99.90;;;;;;5066134;28;20039;-66
2023/11/23 01:53:07;;;;;;;33.33;16.67;;;9.20;99.90;;;;;;5068445;28;20475;-66
2023/11/23 01:55:33;;;;;;;29.58;16.20;;;9.30;99.90;;;;;;5070170;28;20036;-66
2023/11/23 01:58:02;;;;;;;27.80;15.55;;;9.40;99.90;;;;;;5069293;28;20502;-66
2023/11/23 02:00:29;;;;;;;27.05;14.25;;;9.30;99.90;;;;;;5066606;28;20368;-66
2023/11/23 02:02:55;;;;;;;26.88;14.13;;;9.40;99.90;;;;;;5070658;28;20360;-66
2023/11/23 02:05:25;;;;;;;26.50;13.45;;;9.40;99.90;;;;;;5066425;28;20064;-66
2023/11/23 02:07:50;;;;;;;20.10;13.27;;;9.40;99.90;;;;;;5069736;28;20041;-66
2023/11/23 02:10:16;;;;;;;23.63;12.75;;;9.50;99.90;;;;;;5067825;28;20403;-66
2023/11/23 02:12:43;;;;;;;21.83;12.55;;;9.50;99.90;;;;;;5099467;28;20040;-66
2023/11/23 02:15:10;;;;;;;30.10;12.98;;;9.50;99.90;;;;;;5098206;28;20040;-66
2023/11/23 02:17:35;;;;;;;22.63;10.50;;;9.50;99.90;;;;;;5068255;28;20052;-66
2023/11/23 02:20:03;;;;;;;27.65;10.90;;;9.50;99.90;;;;;;5066799;28;20410;-66
2023/11/23 02:22:28;;;;;;;21.27;9.27;;;9.60;99.90;;;;;;5067695;28;20054;-66
2023/11/23 02:24:54;;;;;;;19.58;8.52;;;9.60;99.90;;;;;;5068868;28;20123;-66
2023/11/23 02:27:20;;;;;;;16.83;7.53;;;9.60;99.90;;;;;;5068013;28;20044;-66
2023/11/23 02:29:45;;;;;;;16.48;6.80;;;9.70;99.90;;;;;;5067850;28;20059;-66
2023/11/23 02:32:11;;;;;;;17.88;6.13;;;9.70;99.90;;;;;;5070155;28;20048;-66
2023/11/23 02:34:38;;;;;;;15.43;5.47;;;9.80;99.90;;;;;;5069933;28;20506;-66
2023/11/23 02:37:04;;;;;;;16.33;4.75;;;9.80;99.90;;;;;;5099000;28;20076;-66
2023/11/23 02:39:30;;;;;;;18.73;4.78;;;9.90;99.90;;;;;;5066632;28;20427;-66
2023/11/23 02:41:57;;;;;;;14.88;5.78;;;10.00;99.90;;;;;;5098195;28;20040;-66
2023/11/23 02:44:24;;;;;;;15.82;4.30;;;10.00;99.90;;;;;;5070363;28;20498;-66
2023/11/23 02:46:50;;;;;;;14.77;4.18;;;10.10;99.90;;;;;;5067144;28;20048;-66
2023/11/23 02:49:16;;;;;;;18.42;4.57;;;10.10;99.90;;;;;;5065664;28;20032;-66
2023/11/23 02:51:42;;;;;;;16.40;4.03;;;10.10;99.90;;;;;;5066831;28;20124;-66
2023/11/23 02:54:07;;;;;;;15.73;4.10;;;10.20;99.90;;;;;;5068010;28;20127;-66
2023/11/23 02:56:35;;;;;;;14.95;4.32;;;10.10;99.90;;;;;;5066864;28;20044;-66
2023/11/23 02:59:01;;;;;;;12.98;3.05;;;10.20;99.90;;;;;;5066171;28;20040;-66
2023/11/23 03:01:26;;;;;;;11.60;3.65;;;10.10;99.90;;;;;;5068562;28;20090;-66
2023/11/23 03:03:54;;;;;;;12.77;3.03;;;10.20;99.90;;;;;;5068183;28;20036;-66
2023/11/23 03:06:20;;;;;;;11.57;3.25;;;10.20;99.90;;;;;;5069762;28;20064;-66
2023/11/23 03:08:45;;;;;;;13.70;3.42;;;10.00;99.90;;;;;;5070435;28;20076;-66
2023/11/23 03:11:22;;;;;;;13.23;3.40;;;10.30;99.90;;;;;;5068702;28;20036;-66
2023/11/23 03:13:48;;;;;;;19.60;3.33;;;10.20;99.90;;;;;;5068134;28;20483;-66
2023/11/23 03:16:14;;;;;;;14.32;3.28;;;10.30;99.90;;;;;;5068751;28;20044;-66
2023/11/23 03:18:40;;;;;;;13.25;3.88;;;10.30;99.90;;;;;;5067785;28;20051;-66
2023/11/23 03:21:06;;;;;;;14.57;3.08;;;10.20;99.90;;;;;;5063034;28;20041;-66
2023/11/23 03:23:31;;;;;;;10.93;2.58;;;10.20;99.90;;;;;;5070195;28;20036;-66
2023/11/23 03:25:58;;;;;;;16.02;3.33;;;10.30;99.90;;;;;;5066480;28;20041;-66
2023/11/23 03:28:24;;;;;;;13.57;2.65;;;10.30;99.90;;;;;;5066732;28;20128;-66
2023/11/23 03:30:50;;;;;;;16.08;3.65;;;10.30;99.90;;;;;;5066738;28;20127;-66
2023/11/23 03:33:16;;;;;;;9.75;2.17;;;10.30;99.90;;;;;;5068546;28;20040;-66
2023/11/23 03:35:41;;;;;;;17.48;3.00;;;10.30;99.90;;;;;;5066676;28;20040;-66
2023/11/23 03:38:07;;;;;;;13.15;3.00;;;10.30;99.90;;;;;;5064888;28;20090;-66
2023/11/23 03:40:33;;;;;;;14.20;2.25;;;10.30;99.90;;;;;;5066540;28;20215;-66
2023/11/23 03:42:59;;;;;;;14.18;3.00;;;10.30;99.90;;;;;;5069873;28;20044;-66
2023/11/23 03:45:25;;;;;;;12.43;2.80;;;10.40;99.90;;;;;;5065789;28;20131;-66
2023/11/23 03:47:50;;;;;;;9.25;1.83;;;10.30;99.90;;;;;;5066027;28;20040;-66
2023/11/23 03:50:16;;;;;;;16.17;3.22;;;10.40;99.90;;;;;;5066318;28;20035;-66
2023/11/23 03:52:42;;;;;;;14.40;2.70;;;10.40;99.90;;;;;;5067713;28;20044;-66
2023/11/23 03:55:08;;;;;;;15.98;3.15;;;10.40;99.90;;;;;;5065330;28;20082;-66
2023/11/23 03:57:34;;;;;;;8.55;2.53;;;10.40;99.90;;;;;;5098639;28;20084;-66
2023/11/23 04:00:00;;;;;;;15.65;2.78;;;10.40;99.90;;;;;;5095772;28;20048;-66
2023/11/23 04:02:26;;;;;;;11.70;2.92;;;10.40;99.90;;;;;;5066214;28;20036;-66
2023/11/23 04:04:52;;;;;;;12.43;2.60;;;10.40;99.90;;;;;;5094309;28;20127;-66
2023/11/23 04:07:18;;;;;;;13.30;2.42;;;10.40;99.90;;;;;;5064441;28;20581;-66
2023/11/23 04:09:43;;;;;;;14.02;1.77;;;10.40;99.90;;;;;;5064716;28;20043;-66
2023/11/23 04:12:09;;;;;;;12.85;2.13;;;10.50;99.90;;;;;;5066692;28;20058;-66
2023/11/23 04:14:35;;;;;;;12.52;2.47;;;10.40;99.90;;;;;;5051206;28;20204;-66
2023/11/23 04:17:00;;;;;;;10.10;2.50;;;10.40;99.90;;;;;;5062648;28;20471;-66
2023/11/23 04:19:26;;;;;;;9.85;3.05;;;10.50;99.90;;;;;;5063961;28;20036;-66
2023/11/23 04:21:52;;;;;;;13.98;2.83;;;10.40;99.90;;;;;;5096034;28;20044;-66
2023/11/23 04:24:17;;;;;;;8.20;2.00;;;10.40;99.90;;;;;;5068234;28;20127;-66
2023/11/23 04:26:43;;;;;;;12.25;1.88;;;10.40;99.90;;;;;;5066566;28;20036;-66
2023/11/23 04:29:08;;;;;;;10.95;2.22;;;10.40;99.90;;;;;;5067145;28;20028;-66
2023/11/23 04:31:35;;;;;;;11.43;2.15;;;10.40;99.90;;;;;;5062866;28;20075;-66
2023/11/23 04:34:01;;;;;;;13.27;2.55;;;10.40;99.90;;;;;;5082112;28;20040;-66
2023/11/23 04:36:30;;;;;;;16.00;2.90;;;10.40;99.90;;;;;;5066560;28;20040;-66
2023/11/23 04:38:55;;;;;;;15.15;2.78;;;10.40;99.90;;;;;;5066429;28;20046;-66
2023/11/23 04:41:21;;;;;;;16.92;3.22;;;10.40;99.90;;;;;;5066587;28;20036;-66
2023/11/23 04:43:47;;;;;;;13.48;2.53;;;10.40;99.90;;;;;;5067872;28;20425;-66
2023/11/23 04:46:12;;;;;;;11.73;2.40;;;10.40;99.90;;;;;;5065653;28;20067;-66
2023/11/23 04:48:38;;;;;;;12.05;1.92;;;10.40;99.90;;;;;;5066417;28;20083;-66
2023/11/23 04:51:04;;;;;;;10.40;2.50;;;10.40;99.90;;;;;;5067420;28;20614;-66
2023/11/23 04:53:30;;;;;;;17.00;2.75;;;10.30;99.90;;;;;;5095975;28;20040;-66
2023/11/23 04:55:57;;;;;;;12.43;3.13;;;10.40;99.90;;;;;;5049154;28;20468;-66
2023/11/23 04:58:23;;;;;;;12.77;1.98;;;10.40;99.90;;;;;;5066060;28;20044;-66
2023/11/23 05:00:48;;;;;;;12.65;1.80;;;10.40;99.90;;;;;;5062920;28;20051;-66
2023/11/23 05:03:14;;;;;;;10.40;2.15;;;10.40;99.90;;;;;;5062730;28;20483;-66
2023/11/23 05:05:40;;;;;;;15.38;2.72;;;10.40;99.90;;;;;;5064138;28;20048;-66
2023/11/23 05:08:05;;;;;;;10.45;2.63;;;10.30;99.90;;;;;;5066634;28;20032;-66
2023/11/23 05:10:31;;;;;;;10.98;2.25;;;10.40;99.90;;;;;;5063719;28;20048;-66
2023/11/23 05:12:57;;;;;;;12.80;2.03;;;10.40;99.90;;;;;;5067093;28;20077;-66
2023/11/23 05:15:22;;;;;;;11.15;2.00;;;10.40;99.90;;;;;;5065632;28;20040;-66
2023/11/23 05:17:48;;;;;;;9.93;2.55;;;10.40;99.90;;;;;;5063740;28;20140;-66
2023/11/23 05:20:13;;;;;;;8.40;2.08;;;10.40;99.90;;;;;;5066060;28;20052;-66
2023/11/23 05:22:39;;;;;;;7.40;1.83;;;10.40;99.90;;;;;;5064858;28;20045;-66
2023/11/23 05:25:05;;;;;;;15.48;2.55;;;10.40;99.90;;;;;;5062941;28;20072;-66
2023/11/23 05:27:31;;;;;;;15.20;2.92;;;10.40;99.90;;;;;;5063743;28;20037;-66
2023/11/23 05:29:58;;;;;;;9.70;2.03;;;10.40;99.90;;;;;;5063123;28;20032;-66
2023/11/23 05:32:24;;;;;;;12.30;2.40;;;10.50;99.90;;;;;;5062554;28;20083;-66
2023/11/23 05:34:49;;;;;;;13.82;2.88;;;10.50;99.90;;;;;;5063391;28;20080;-66
2023/11/23 05:37:15;;;;;;;15.07;2.67;;;10.40;99.90;;;;;;5061413;28;20049;-66
2023/11/23 05:39:41;;;;;;;12.95;2.28;;;10.50;99.90;;;;;;5061384;28;20390;-66
2023/11/23 05:42:07;;;;;;;17.73;2.45;;;10.60;99.90;;;;;;5065620;28;20041;-66
2023/11/23 05:44:33;;;;;;;14.23;2.35;;;10.50;99.90;;;;;;5065127;28;20044;-66
2023/11/23 05:46:59;;;;;;;16.27;2.78;;;10.50;99.90;;;;;;5096430;28;20491;-66
2023/11/23 05:49:25;;;;;;;17.23;2.92;;;10.50;99.90;;;;;;5062996;28;20044;-66
2023/11/23 05:51:51;;;;;;;12.00;2.00;;;10.40;99.90;;;;;;5062427;28;20161;-66
2023/11/23 05:54:17;;;;;;;11.77;2.30;;;10.50;99.90;;;;;;5065245;28;20063;-66
2023/11/23 05:56:43;;;;;;;9.50;1.83;;;10.50;99.90;;;;;;5065644;28;20379;-66
2023/11/23 05:59:10;;;;;;;12.30;1.98;;;10.50;99.90;;;;;;5065448;28;20059;-66
2023/11/23 06:01:35;;;;;;;12.48;2.30;;;10.50;99.90;;;;;;5064493;28;20037;-66
2023/11/23 06:04:01;;;;;;;16.92;2.78;;;10.50;99.90;;;;;;5065052;28;20046;-66
2023/11/23 06:06:27;;;;;;;6.93;1.67;;;10.50;99.90;;;;;;5061025;28;20044;-66
2023/11/23 06:08:53;;;;;;;12.85;2.58;;;10.50;99.90;;;;;;5057808;28;20696;-66
2023/11/23 06:11:18;;;;;;;12.68;2.80;;;10.50;99.90;;;;;;5056587;28;20049;-66
2023/11/23 06:13:45;;;;;;;13.82;2.33;;;10.50;99.90;;;;;;5059638;28;20044;-66
2023/11/23 06:16:12;;;;;;;13.93;3.17;;;10.60;99.90;;;;;;5092162;28;20123;-66
2023/11/23 06:18:38;;;;;;;9.70;2.25;;;10.60;99.90;;;;;;5060787;28;20076;-66
2023/11/23 06:21:04;;;;;;;14.13;2.35;;;10.60;99.90;;;;;;5093819;28;20083;-66
2023/11/23 06:23:30;;;;;;;18.25;4.32;;;10.60;99.90;;;;;;5059825;28;20082;-66
2023/11/23 06:25:59;;;;;;;17.20;2.30;;;10.60;99.90;;;;;;5060822;28;20044;-66
2023/11/23 06:28:24;;;;;;;12.23;2.28;;;10.60;99.90;;;;;;5060564;28;20045;-66
2023/11/23 06:30:51;;;;;;;7.15;1.42;;;10.60;99.90;;;;;;5061314;28;20387;-66
2023/11/23 06:33:17;;;;;;;10.20;2.00;;;10.70;99.90;;;;;;5063630;28;20052;-66
2023/11/23 06:35:43;;;;;;;11.82;2.08;;;10.60;99.90;;;;;;5056756;28;20028;-66
2023/11/23 06:38:09;;;;;;;12.43;2.00;;;10.60;99.90;;;;;;5063791;28;20044;-65
2023/11/23 06:40:35;;;;;;;13.43;2.60;;;10.70;99.90;;;;;;5067116;28;20438;-65
2023/11/23 06:43:02;;;;;;;6.85;1.65;;;10.70;99.90;;;;;;5099920;28;20087;-65
2023/11/23 06:45:27;;;;;;;11.80;2.00;;;10.70;99.90;;;;;;5067601;28;20044;-65
2023/11/23 06:47:53;;;;;;;16.65;3.17;;;10.80;99.90;;;;;;5067310;28;20063;-65
2023/11/23 06:50:20;;;;;;;17.17;2.75;;;10.80;99.90;;;;;;5064731;28;20044;-66
2023/11/23 06:52:46;;;;;;;15.38;2.70;;;10.80;99.90;;;;;;5066587;28;20406;-65
2023/11/23 06:55:14;;;;;;;10.38;2.40;;;10.80;99.90;;;;;;5066980;28;20041;-65
2023/11/23 06:57:46;;;;;;;11.75;2.58;;;10.90;99.90;;;;;;5064949;28;20073;-65
2023/11/23 07:00:22;;;;;;;13.20;3.35;;;10.90;99.90;;;;;;5080189;28;20048;-66
2023/11/23 07:02:58;;;;;;;8.02;1.50;;;10.80;99.90;;;;;;5047609;28;20036;-66
2023/11/23 07:05:24;;;;;;;10.77;2.70;;;10.90;99.90;;;;;;5061661;28;20051;-66
2023/11/23 07:07:51;;;;;;;8.65;2.60;;;10.90;99.90;;;;;;5064175;28;20090;-66
2023/11/23 07:10:18;;;;;;;18.05;2.80;;;10.90;99.90;;;;;;5065234;28;20040;-66
2023/11/23 07:12:44;;;;;;;13.77;2.78;;;11.00;99.90;;;;;;5062822;28;20060;-65
2023/11/23 07:15:12;;;;;;;8.40;1.63;;;10.90;99.90;;;;;;5062347;28;20060;-66
2023/11/23 07:17:41;;;;;;;11.18;2.25;;;11.00;99.90;;;;;;5068846;28;20045;-66
2023/11/23 07:20:11;;;;;;;15.00;2.03;;;11.00;99.90;;;;;;5062964;28;20702;-66
2023/11/23 07:22:38;;;;;;;9.45;1.67;;;11.00;99.90;;;;;;5064917;28;20044;-66
2023/11/23 07:25:04;;;;;;;10.63;2.30;;;11.00;99.90;;;;;;5064474;28;20117;-66
2023/11/23 07:27:29;;;;;;;9.73;2.17;;;11.00;99.90;;;;;;5063596;28;20040;-66
2023/11/23 07:29:55;;;;;;;9.15;1.50;;;11.10;99.90;;;;;;5064212;28;20078;-66
2023/11/23 07:32:21;;;;;;;11.73;1.55;;;11.10;99.90;;;;;;5066056;28;20040;-66
2023/11/23 07:34:47;;;;;;;10.18;2.83;;;11.00;99.90;;;;;;5060743;28;20146;-66
2023/11/23 07:37:14;;;;;;;10.20;1.70;;;11.10;99.90;;;;;;5066926;28;20036;-66
2023/11/23 07:39:39;;;;;;;9.77;1.35;;;11.10;99.90;;;;;;5062782;28;20064;-65
2023/11/23 07:42:05;;;;;;;6.97;1.50;;;11.10;99.90;;;;;;5064414;28;20044;-65
2023/11/23 07:44:31;;;;;;;15.55;1.50;;;11.00;99.90;;;;;;5066075;28;20044;-65
2023/11/23 07:46:57;;;;;;;12.82;2.45;;;11.20;99.90;;;;;;5064920;28;20063;-65
2023/11/23 07:49:23;;;;;;;9.18;1.45;;;11.10;99.90;;;;;;5064860;28;20530;-65
2023/11/23 07:51:49;;;;;;;11.38;1.90;;;11.20;99.90;;;;;;5097587;28;20115;-65
2023/11/23 07:54:15;;;;;;;15.18;2.50;;;11.40;99.90;;;;;;5063456;28;20072;-65
2023/11/23 07:56:41;;;;;;;9.70;1.42;;;11.20;99.90;;;;;;5061758;28;20110;-66
2023/11/23 07:59:07;;;;;;;11.75;2.30;;;11.20;99.90;;;;;;5064522;28;20068;-66
2023/11/23 08:01:33;;;;;;;11.45;1.98;;;11.20;99.90;;;;;;5062593;28;20058;-66
2023/11/23 08:04:00;;;;;;;8.65;2.08;;;11.20;99.90;;;;;;5067956;28;20037;-65
2023/11/23 08:06:25;;;;;;;9.70;1.33;;;11.30;99.90;;;;;;5066903;28;20040;-65
2023/11/23 08:08:51;;;;;;;13.07;2.05;;;11.30;99.90;;;;;;5067919;28;20045;-65
2023/11/23 08:11:17;;;;;;;7.53;1.42;;;11.30;99.90;;;;;;5070267;28;20040;-66
2023/11/23 08:13:44;;;;;;;10.68;1.98;;;11.30;99.90;;;;;;5069347;28;20491;-66
2023/11/23 08:16:10;;;;;;;9.27;1.95;;;11.30;99.90;;;;;;5069411;28;20039;-66
2023/11/23 08:18:36;;;;;;;8.30;1.23;;;11.30;99.90;;;;;;5099660;28;20095;-66
2023/11/23 08:21:01;;;;;;;8.82;2.25;;;11.30;99.90;;;;;;5051003;28;20395;-65
2023/11/23 08:23:27;;;;;;;9.68;1.20;;;11.30;99.90;;;;;;5068376;28;20070;-65
2023/11/23 08:25:53;;;;;;;7.50;1.15;;;11.30;99.90;;;;;;5067148;28;20044;-65
2023/11/23 08:28:20;;;;;;;12.98;2.88;;;11.30;99.90;;;;;;5068352;28;20044;-65
2023/11/23 08:30:47;;;;;;;11.88;1.98;;;11.70;99.90;;;;;;5065125;28;20043;-66
2023/11/23 08:33:13;;;;;;;7.63;1.48;;;11.30;99.90;;;;;;5068527;28;20082;-66
2023/11/23 08:35:39;;;;;;;7.80;1.20;;;11.40;99.90;;;;;;5066374;28;20127;-66
2023/11/23 08:38:05;;;;;;;7.47;1.42;;;11.80;99.90;;;;;;5068763;28;20119;-66
2023/11/23 08:40:31;;;;;;;11.10;1.83;;;11.60;99.90;;;;;;5066508;28;20055;-66
2023/11/23 08:42:56;;;;;;;6.35;1.30;;;11.50;99.90;;;;;;5068100;28;20119;-66
2023/11/23 08:45:22;;;;;;;5.43;0.73;;;11.60;99.90;;;;;;5067186;28;20044;-65
2023/11/23 08:47:47;;;;;;;7.95;1.17;;;11.70;99.90;;;;;;5080231;28;20048;-65
2023/11/23 08:50:13;;;;;;;7.93;1.10;;;11.60;99.90;;;;;;5066632;28;20044;-65
2023/11/23 08:52:39;;;;;;;9.02;2.13;;;11.70;99.90;;;;;;5068525;28;20757;-65
2023/11/23 08:55:10;;;;;;;6.20;0.82;;;11.70;99.90;;;;;;5067466;28;20056;-65
2023/11/23 08:57:37;;;;;;;13.20;3.00;;;11.70;99.90;;;;;;5067502;28;20044;-65
2023/11/23 09:00:09;;;;;;;7.57;1.27;;;11.70;99.90;;;;;;5082626;28;20116;-65
2023/11/23 09:02:37;;;;;;;9.90;1.42;;;11.80;99.90;;;;;;5066191;28;20510;-65
2023/11/23 09:05:10;;;;;;;9.95;1.42;;;11.80;99.90;;;;;;5067159;28;20052;-66
2023/11/23 09:07:35;;;;;;;9.65;1.95;;;11.80;99.90;;;;;;5067371;28;20072;-66
2023/11/23 09:10:01;;;;;;;10.35;1.20;;;11.80;99.90;;;;;;5064768;28;20095;-66
2023/11/23 09:12:32;;;;;;;6.43;0.90;;;11.80;99.90;;;;;;5068226;28;20028;-66
2023/11/23 09:14:58;;;;;;;5.78;1.05;;;11.80;99.90;;;;;;5068412;28;20578;-66
2023/11/23 09:17:24;;;;;;;10.57;1.77;;;11.80;99.90;;;;;;5067393;28;20376;-65
2023/11/23 09:19:49;;;;;;;7.65;0.90;;;11.90;99.90;;;;;;5068124;28;20057;-65
2023/11/23 09:22:15;;;;;;;6.95;1.45;;;11.90;99.90;;;;;;5068193;28;20123;-65
2023/11/23 09:24:41;;;;;;;14.88;1.95;;;11.90;99.90;;;;;;5067769;28;20048;-65
2023/11/23 09:27:07;;;;;;;8.07;1.35;;;12.00;99.90;;;;;;5071277;28;20032;-65
2023/11/23 09:29:32;;;;;;;10.40;1.58;;;12.00;99.90;;;;;;5066004;28;20135;-66
2023/11/23 09:31:58;;;;;;;11.27;2.85;;;12.00;99.90;;;;;;5067624;28;20036;-66
2023/11/23 09:34:24;;;;;;;9.48;1.02;;;12.00;99.90;;;;;;5066791;28;20047;-66
2023/11/23 09:36:50;;;;;;;9.80;1.25;;;12.00;99.90;;;;;;5068046;28;20036;-65
2023/11/23 09:39:17;;;;;;;10.63;1.50;;;12.10;99.90;;;;;;5066735;28;20032;-65
2023/11/23 09:41:44;;;;;;;13.60;1.83;;;12.10;99.90;;;;;;5067217;28;20033;-65
2023/11/23 09:44:10;;;;;;;7.47;1.88;;;12.20;99.90;;;;;;5067215;28;20044;-65
2023/11/23 09:46:38;;;;;;;11.00;1.55;;;12.20;99.90;;;;;;5066339;28;20043;-65
2023/11/23 09:49:07;;;;;;;7.53;1.08;;;12.20;99.90;;;;;;5064034;28;20041;-66
2023/11/23 09:51:35;;;;;;;5.15;1.20;;;12.20;99.90;;;;;;5067967;28;20453;-66
2023/11/23 09:54:03;;;;;;;11.55;1.10;;;12.20;99.90;;;;;;5070347;28;20144;-66
2023/11/23 09:56:29;;;;;;;6.15;1.10;;;12.30;99.90;;;;;;5068806;28;20040;-66
2023/11/23 09:58:55;;;;;;;7.55;0.93;;;12.30;99.90;;;;;;5065966;28;20056;-66
2023/11/23 10:01:25;;;;;;;5.20;0.88;;;12.40;99.90;;;;;;5049061;28;20036;-66
2023/11/23 10:03:54;;;;;;;9.05;1.67;;;12.40;99.90;;;;;;5067018;28;20056;-66
2023/11/23 10:06:20;;;;;;;7.53;1.13;;;12.40;99.90;;;;;;5068391;28;20059;-66
2023/11/23 10:08:49;;;;;;;9.02;1.00;;;12.50;99.90;;;;;;5065911;28;20044;-66
2023/11/23 10:11:14;;;;;;;10.13;1.90;;;12.50;99.90;;;;;;5068542;28;20037;-66
2023/11/23 10:13:40;;;;;;;8.70;1.55;;;12.50;99.90;;;;;;5070259;28;20736;-65
2023/11/23 10:16:07;;;;;;;11.52;1.85;;;12.50;99.90;;;;;;5105290;27;20059;-65
2023/11/23 10:18:41;;;;;;;7.07;1.88;;;12.50;99.90;;;;;;5104381;27;20511;-65
2023/11/23 10:21:12;;;;;;;7.70;1.17;;;12.60;99.90;;;;;;5070030;28;20092;-66
2023/11/23 10:23:43;;;;;;;12.75;1.35;;;12.50;99.90;;;;;;5070874;28;20045;-66
2023/11/23 10:26:09;;;;;;;10.18;1.65;;;12.70;99.90;;;;;;5068138;28;20568;-66
2023/11/23 10:28:36;;;;;;;11.80;1.63;;;12.70;99.90;;;;;;5071215;28;20217;-66
2023/11/23 10:31:05;;;;;;;9.63;1.17;;;12.70;99.90;;;;;;5070015;28;20047;-66
2023/11/23 10:33:33;;;;;;;6.53;0.80;;;12.60;99.90;;;;;;5069076;28;20123;-66
2023/11/23 10:36:04;;;;;;;9.38;1.15;;;12.70;99.90;;;;;;5069939;28;20040;-66
2023/11/23 10:38:40;;;;;;;6.13;0.85;;;12.70;99.90;;;;;;5070841;28;20040;-66
2023/11/23 10:41:08;;;;;;;9.02;1.30;;;12.60;99.90;;;;;;5069236;28;20040;-66
2023/11/23 10:43:36;;;;;;;5.32;1.08;;;12.60;99.90;;;;;;5069738;28;20062;-66
2023/11/23 10:46:11;;;;;;;6.63;1.00;;;12.70;99.90;;;;;;5068521;28;20051;-66
2023/11/23 10:48:38;;;;;;;11.30;1.15;;;12.70;99.90;;;;;;5070355;28;20067;-66
2023/11/23 10:51:06;;;;;;;5.00;0.77;;;12.70;99.90;;;;;;5071659;28;20040;-65
2023/11/23 10:53:33;;;;;;;10.25;1.85;;;12.70;99.90;;;;;;5070592;28;20367;-65
2023/11/23 10:56:04;;;;;;;8.82;1.35;;;12.70;99.90;;;;;;5072242;28;20036;-65
2023/11/23 10:58:37;;;;;;;8.38;1.40;;;12.70;99.90;;;;;;5067161;28;20079;-65
2023/11/23 11:01:09;;;;;;;5.05;1.05;;;12.70;99.90;;;;;;5072623;28;20105;-65
2023/11/23 11:03:38;;;;;;;7.43;1.45;;;12.70;99.90;;;;;;5072218;28;20402;-66
2023/11/23 11:06:11;;;;;;;6.57;1.13;;;12.80;99.90;;;;;;5069304;28;20044;-66
2023/11/23 11:08:44;;;;;;;7.15;1.38;;;12.80;99.90;;;;;;5062474;28;20123;-65
2023/11/23 11:11:15;;;;;;;8.02;0.88;;;12.80;99.90;;;;;;5073341;28;20068;-65
2023/11/23 11:13:45;;;;;;;7.68;1.35;;;12.90;99.90;;;;;;5070142;28;20047;-65
2023/11/23 11:16:17;;;;;;;10.65;1.60;;;13.00;99.90;;;;;;5071319;28;20048;-66
2023/11/23 11:18:51;;;;;;;5.15;1.33;;;13.00;99.90;;;;;;5103327;27;20080;-65
2023/11/23 11:21:20;;;;;;;7.18;0.60;;;13.00;99.90;;;;;;5065540;28;20090;-65
2023/11/23 11:23:52;;;;;;;7.07;1.13;;;13.00;99.90;;;;;;5070822;28;20124;-65
2023/11/23 11:26:24;;;;;;;7.07;1.40;;;13.00;99.90;;;;;;5069668;28;20045;-65
2023/11/23 11:28:54;;;;;;;8.00;2.33;;;13.00;99.90;;;;;;5070530;28;20059;-65
2023/11/23 11:31:39;;;;;;;4.03;1.10;;;13.00;99.90;;;;;;5072575;28;20527;-65
2023/11/23 11:34:12;;;;;;;11.63;1.30;;;13.10;99.90;;;;;;5070658;28;20048;-65
2023/11/23 11:36:38;;;;;;;8.27;1.48;;;13.00;99.90;;;;;;5072245;28;20037;-65
2023/11/23 11:39:05;;;;;;;6.55;1.35;;;13.00;99.90;;;;;;5070104;28;20040;-65
2023/11/23 11:41:34;;;;;;;8.48;1.42;;;13.00;99.90;;;;;;5103745;28;20538;-65
2023/11/23 11:44:01;;;;;;;8.52;2.00;;;13.00;99.90;;;;;;5069527;28;20044;-65
2023/11/23 11:46:29;;;;;;;9.55;1.45;;;13.00;99.90;;;;;;5069334;28;20437;-65
2023/11/23 11:48:57;;;;;;;9.07;1.33;;;13.00;99.90;;;;;;5071432;28;20130;-65
2023/11/23 11:51:29;;;;;;;9.27;2.35;;;13.00;99.90;;;;;;5068383;28;20055;-66
2023/11/23 11:53:56;;;;;;;5.68;1.02;;;12.90;99.90;;;;;;5102626;27;20078;-65
2023/11/23 11:56:25;;;;;;;11.63;2.08;;;12.90;99.90;;;;;;5094717;27;20052;-65
2023/11/23 11:58:51;;;;;;;9.57;1.27;;;13.00;99.90;;;;;;5064989;28;20056;-65
2023/11/23 12:01:19;;;;;;;13.90;2.10;;;13.00;99.90;;;;;;5049134;28;20044;-66
2023/11/23 12:03:46;;;;;;;9.15;1.30;;;12.90;99.90;;;;;;5081270;28;20039;-66
2023/11/23 12:06:11;;;;;;;9.02;1.70;;;13.00;99.90;;;;;;5071430;28;20425;-66
2023/11/23 12:08:37;;;;;;;6.22;1.42;;;13.00;99.90;;;;;;5103792;27;20041;-65
2023/11/23 12:11:05;;;;;;;8.70;1.48;;;13.00;99.90;;;;;;5071391;28;20079;-65
2023/11/23 12:13:32;;;;;;;8.82;1.17;;;13.10;99.90;;;;;;5070685;28;20040;-65
2023/11/23 12:16:01;;;;;;;7.45;1.17;;;13.10;99.90;;;;;;5099774;28;20045;-65
2023/11/23 12:18:30;;;;;;;9.27;2.22;;;13.10;99.90;;;;;;5051107;28;20087;-65
2023/11/23 12:20:56;;;;;;;8.55;1.65;;;13.10;99.90;;;;;;5072248;28;20083;-65
2023/11/23 12:23:21;;;;;;;7.38;1.58;;;13.10;99.90;;;;;;5068978;28;20075;-65
2023/11/23 12:25:51;;;;;;;5.43;1.30;;;13.10;99.90;;;;;;5069639;28;20055;-65
2023/11/23 12:28:23;;;;;;;11.32;1.98;;;13.10;99.90;;;;;;5070486;28;20050;-65
2023/11/23 12:30:49;;;;;;;8.75;1.40;;;13.10;99.90;;;;;;5069852;28;20090;-65
2023/11/23 12:33:15;;;;;;;9.40;1.80;;;13.10;99.90;;;;;;5072993;28;20469;-65
2023/11/23 12:35:41;;;;;;;10.30;2.50;;;13.10;99.90;;;;;;5068664;28;20068;-65
2023/11/23 12:38:11;;;;;;;9.55;1.55;;;13.00;99.90;;;;;;5071378;28;20391;-65